Etusivu
METAR-TAF:

METAR-TAF

Lentoasemat :

L.O. Simenstad Municipal Airport

Osceola, Wisconsin, Yhdysvallat

Leveyspiiri: 45-18-31N, Pituuspiiri: 092-41-24W, korkeus merenpinnasta: 275 m

Tämänhetkinen sää

Tämä raportti tehtiin 24 minuuttia sitten, kello 09.55 UTC
Tuuli 8 kn lännestä/luoteesta
Lämpötila -6°C
Kosteus 79%
Ilmanpaine 1019 hPa
Näkyvyys: 16.1 km
Pilvistä 4200 ft:n korkeudessa

METAR: KOEO 180955Z AUTO 30008KT 10SM OVC042 M06/M09 A3009 RMK AO2 T10641086 PWINO

Aika: 04:19 (10:19 UTC)


TAF: puuttuu

Säähavainnot ja -ennusteet yli 4000 lentoasemalta (METAR- ja TAF-raportit).

Käytössä olevat sääasemat on merkitty karttaan keltaisilla ja punaisilla pisteillä.

Aseta hiiri pisteen päälle nähdäksesi sääaseman nimen.

Klikkaa sitten nähdäksesi säähavainnot ja -ennusteet.

Kartan vaihtaminen: klikkaa mustalla rastilla varustettuja vihreitä pisteitä, niin voit zoomata sisään; viivalla varustettua vihreää pistettä, niin voit zoomata ulos tai vihreitä nuolia, niin pääset viereisille kartoille.


METAR-TAF: